Time;durP1;ratioP1;P1;durP2;ratioP2;P2;SDS_P1;SDS_P2;PMS_P1;PMS_P2;Temp;Humidity;BMP_temperature;BMP_pressure;BME280_temperature;BME280_humidity;BME280_pressure;Samples;Min_cycle;Max_cycle;Signal;HPM_P1;HPM_P2
2022/03/16 00:01:55;;;;;;;;;;;;;;;26.10;61.22;97989.38;626846;226;66897;-74
2022/03/16 00:04:23;;;;;;;;;;;;;;;26.09;60.96;97993.17;626821;226;65405;-74
2022/03/16 00:06:50;;;;;;;;;;;;;;;26.08;60.38;97989.68;626908;226;67024;-74
2022/03/16 00:09:18;;;;;;;;;;;;;;;26.09;59.98;97971.63;626930;226;66616;-74
2022/03/16 00:11:45;;;;;;;;;;;;;;;26.08;60.03;97983.47;626799;226;63589;-74
2022/03/16 00:14:13;;;;;;;;;;;;;;;26.07;61.38;97976.48;626857;226;64788;-74
2022/03/16 00:16:40;;;;;;;;;;;;;;;26.05;59.89;97981.34;626833;226;67359;-74
2022/03/16 00:19:08;;;;;;;;;;;;;;;26.04;60.88;97977.84;626869;226;65483;-74
2022/03/16 00:21:35;;;;;;;;;;;;;;;26.05;61.16;97978.64;626897;226;67045;-74
2022/03/16 00:24:03;;;;;;;;;;;;;;;26.05;60.48;97975.95;626848;226;66864;-74
2022/03/16 00:26:30;;;;;;;;;;;;;;;26.04;59.70;97982.44;626840;226;65394;-74
2022/03/16 00:28:58;;;;;;;;;;;;;;;26.04;60.03;97977.05;626836;226;67052;-74
2022/03/16 00:31:25;;;;;;;;;;;;;;;26.02;59.99;97965.74;626849;226;67103;-74
2022/03/16 00:33:53;;;;;;;;;;;;;;;26.02;60.89;97973.82;626914;226;65044;-74
2022/03/16 00:36:21;;;;;;;;;;;;;;;26.01;60.18;97969.53;626837;226;66590;-74
2022/03/16 00:38:49;;;;;;;;;;;;;;;25.99;60.38;97956.33;626342;226;67016;-74
2022/03/16 00:41:17;;;;;;;;;;;;;;;25.99;60.44;97947.45;624492;227;63060;-78
2022/03/16 00:43:45;;;;;;;;;;;;;;;25.99;61.49;97964.41;624598;227;64667;-78
2022/03/16 00:46:13;;;;;;;;;;;;;;;25.96;59.75;97953.41;624681;227;66981;-78
2022/03/16 00:48:40;;;;;;;;;;;;;;;25.94;60.44;97940.20;624661;227;65460;-78
2022/03/16 00:51:09;;;;;;;;;;;;;;;25.94;60.46;97937.52;624637;227;67188;-78
2022/03/16 00:53:39;;;;;;;;;;;;;;;25.90;59.95;97926.51;624565;225;65688;-78
2022/03/16 00:56:07;;;;;;;;;;;;;;;25.92;60.93;97918.16;624632;227;63082;-78
2022/03/16 00:58:34;;;;;;;;;;;;;;;25.91;59.46;97914.64;624617;227;67193;-78
2022/03/16 01:01:03;;;;;;;;;;;;;;;25.91;59.57;97906.56;624677;227;67748;-77
2022/03/16 01:03:31;;;;;;;;;;;;;;;25.91;60.58;97897.69;624603;227;63253;-78
2022/03/16 01:05:58;;;;;;;;;;;;;;;25.86;59.34;97895.86;624576;225;64777;-78
2022/03/16 01:08:26;;;;;;;;;;;;;;;25.87;61.19;97896.66;624624;227;64761;-78
2022/03/16 01:10:53;;;;;;;;;;;;;;;25.87;60.32;97896.66;624608;227;63029;-78
2022/03/16 01:13:21;;;;;;;;;;;;;;;25.84;60.60;97892.63;624593;227;66818;-78
2022/03/16 01:15:49;;;;;;;;;;;;;;;25.83;59.86;97896.39;624635;227;64863;-78
2022/03/16 01:18:16;;;;;;;;;;;;;;;25.83;61.07;97888.31;624611;227;63005;-78
2022/03/16 01:20:44;;;;;;;;;;;;;;;25.83;61.50;97890.17;624608;227;67027;-78
2022/03/16 01:23:12;;;;;;;;;;;;;;;25.82;61.35;97885.89;624641;227;66972;-78
2022/03/16 01:25:40;;;;;;;;;;;;;;;25.80;61.77;97886.16;624691;227;65387;-78
2022/03/16 01:28:07;;;;;;;;;;;;;;;25.79;61.01;97884.56;624649;227;64444;-78
2022/03/16 01:30:35;;;;;;;;;;;;;;;25.79;61.63;97868.41;624636;227;66953;-78
2022/03/16 01:33:04;;;;;;;;;;;;;;;25.78;62.38;97876.75;624588;227;65987;-74
2022/03/16 01:35:32;;;;;;;;;;;;;;;25.76;61.82;97863.59;624601;225;66752;-74
2022/03/16 01:37:59;;;;;;;;;;;;;;;25.76;60.95;97868.17;624625;227;67121;-74
2022/03/16 01:40:28;;;;;;;;;;;;;;;25.76;61.68;97874.36;626642;226;62969;-74
2022/03/16 01:42:55;;;;;;;;;;;;;;;25.74;62.21;97879.21;626882;226;64564;-74
2022/03/16 01:45:23;;;;;;;;;;;;;;;25.72;61.76;97865.22;626830;226;64794;-74
2022/03/16 01:47:50;;;;;;;;;;;;;;;25.72;61.31;97842.89;626869;226;64054;-74
2022/03/16 01:50:18;;;;;;;;;;;;;;;25.71;62.00;97849.36;626848;226;66604;-74
2022/03/16 01:52:45;;;;;;;;;;;;;;;25.71;61.92;97862.83;626860;226;67671;-74
2022/03/16 01:55:13;;;;;;;;;;;;;;;25.69;62.00;97845.05;626849;226;62983;-74
2022/03/16 01:57:43;;;;;;;;;;;;;;;25.69;61.17;97849.64;626842;226;68179;-73
2022/03/16 02:00:10;;;;;;;;;;;;;;;25.67;61.93;97843.72;626817;225;66956;-74
2022/03/16 02:02:42;;;;;;;;;;;;;;;25.67;61.27;97854.48;626904;226;65783;-74
2022/03/16 02:05:10;;;;;;;;;;;;;;;25.68;61.39;97842.66;626823;226;64413;-74
2022/03/16 02:07:38;;;;;;;;;;;;;;;25.66;61.85;97826.77;626892;226;64780;-74
2022/03/16 02:10:06;;;;;;;;;;;;;;;25.65;61.95;97832.45;626817;226;65322;-78
2022/03/16 02:12:47;;;;;;;;;;;;;;;25.62;61.45;97830.33;626927;226;67310;-78
2022/03/16 02:15:15;;;;;;;;;;;;;;;25.61;60.32;97823.32;626895;225;64858;-78
2022/03/16 02:17:42;;;;;;;;;;;;;;;25.61;62.21;97826.81;626894;226;63020;-78
2022/03/16 02:20:10;;;;;;;;;;;;;;;25.61;61.80;97823.32;626896;226;64332;-79
2022/03/16 02:22:39;;;;;;;;;;;;;;;25.60;61.30;97813.65;626889;226;64782;-78
2022/03/16 02:25:09;;;;;;;;;;;;;;;25.60;62.13;97805.58;626620;225;65543;-78
2022/03/16 02:27:39;;;;;;;;;;;;;;;25.59;62.12;97793.19;626891;226;64860;-78
2022/03/16 02:30:07;;;;;;;;;;;;;;;25.58;61.82;97810.42;626929;226;66860;-74
2022/03/16 02:32:34;;;;;;;;;;;;;;;25.57;62.01;97798.86;626853;226;65112;-74
2022/03/16 02:35:02;;;;;;;;;;;;;;;25.57;61.32;97806.14;626862;226;67064;-78
2022/03/16 02:37:29;;;;;;;;;;;;;;;25.57;62.88;97795.38;626919;226;66590;-77
2022/03/16 02:39:57;;;;;;;;;;;;;;;25.54;62.04;97779.80;625327;226;65368;-78
2022/03/16 02:42:25;;;;;;;;;;;;;;;25.54;62.65;97794.05;624576;227;66995;-74
2022/03/16 02:44:52;;;;;;;;;;;;;;;25.53;62.36;97787.04;624551;227;65311;-74
2022/03/16 02:47:20;;;;;;;;;;;;;;;25.51;62.38;97777.64;624566;227;63013;-74
2022/03/16 02:49:48;;;;;;;;;;;;;;;25.52;62.32;97780.06;624584;227;64784;-74
2022/03/16 02:52:15;;;;;;;;;;;;;;;25.49;62.55;97771.77;624558;227;67444;-74
2022/03/16 02:54:43;;;;;;;;;;;;;;;25.49;62.30;97763.69;624590;224;64999;-74
2022/03/16 02:57:13;;;;;;;;;;;;;;;25.47;62.28;97764.75;624571;227;68043;-74
2022/03/16 02:59:40;;;;;;;;;;;;;;;25.46;62.04;97763.16;624568;224;66862;-74
2022/03/16 03:02:07;;;;;;;;;;;;;;;25.46;62.08;97755.09;624590;227;65389;-74
2022/03/16 03:04:34;;;;;;;;;;;;;;;25.46;63.38;97759.67;624584;227;66731;-74
2022/03/16 03:07:02;;;;;;;;;;;;;;;25.45;62.37;97760.73;624617;227;66950;-74
2022/03/16 03:09:29;;;;;;;;;;;;;;;25.44;62.82;97768.02;624552;227;65131;-74
2022/03/16 03:11:59;;;;;;;;;;;;;;;25.45;62.89;97763.42;624601;227;67291;-74
2022/03/16 03:14:27;;;;;;;;;;;;;;;25.42;62.66;97762.10;624618;224;66898;-74
2022/03/16 03:16:54;;;;;;;;;;;;;;;25.40;62.52;97756.22;624584;227;65140;-74
2022/03/16 03:19:22;;;;;;;;;;;;;;;25.40;63.00;97750.84;624560;227;67054;-74
2022/03/16 03:21:49;;;;;;;;;;;;;;;25.38;61.98;97761.08;624646;227;66904;-74
2022/03/16 03:24:17;;;;;;;;;;;;;;;25.40;62.70;97758.09;624565;227;65473;-74
2022/03/16 03:26:44;;;;;;;;;;;;;;;25.38;63.34;97758.38;624618;227;67030;-74
2022/03/16 03:29:13;;;;;;;;;;;;;;;25.38;63.06;97744.13;624590;227;67883;-74
2022/03/16 03:31:40;;;;;;;;;;;;;;;25.36;63.44;97740.91;624571;227;65109;-74
2022/03/16 03:34:08;;;;;;;;;;;;;;;25.35;62.95;97732.05;624621;227;68005;-74
2022/03/16 03:36:35;;;;;;;;;;;;;;;25.33;62.43;97742.28;624587;227;66917;-74
2022/03/16 03:39:03;;;;;;;;;;;;;;;25.32;62.60;97751.45;625189;226;65347;-74
2022/03/16 03:41:31;;;;;;;;;;;;;;;25.32;61.78;97735.30;626864;226;66962;-78
2022/03/16 03:43:58;;;;;;;;;;;;;;;25.32;62.88;97729.92;626888;226;66986;-79
2022/03/16 03:46:26;;;;;;;;;;;;;;;25.30;62.67;97725.91;626860;226;65336;-79
2022/03/16 03:48:53;;;;;;;;;;;;;;;25.29;62.88;97735.87;626847;226;67977;-79
2022/03/16 03:51:21;;;;;;;;;;;;;;;25.28;62.65;97720.80;626916;226;66591;-77
2022/03/16 03:53:48;;;;;;;;;;;;;;;25.27;61.55;97711.12;626887;226;65132;-79
2022/03/16 03:56:16;;;;;;;;;;;;;;;25.26;62.71;97717.58;626883;226;64874;-79
2022/03/16 03:58:45;;;;;;;;;;;;;;;25.25;62.77;97724.84;626950;226;65065;-74
2022/03/16 04:01:15;;;;;;;;;;;;;;;25.25;63.15;97718.67;626846;226;65374;-74
2022/03/16 04:03:41;;;;;;;;;;;;;;;25.24;62.14;97711.70;626767;225;66843;-78
2022/03/16 04:06:09;;;;;;;;;;;;;;;25.23;63.69;97704.69;626846;226;66862;-78
2022/03/16 04:08:37;;;;;;;;;;;;;;;25.23;63.33;97715.45;626867;226;65107;-78
2022/03/16 04:11:05;;;;;;;;;;;;;;;25.22;63.11;97713.86;626885;226;67064;-79
2022/03/16 04:13:32;;;;;;;;;;;;;;;25.22;62.56;97720.03;626897;226;64693;-79
2022/03/16 04:16:00;;;;;;;;;;;;;;;25.19;62.68;97709.05;626886;226;63014;-78
2022/03/16 04:18:28;;;;;;;;;;;;;;;25.18;63.38;97707.42;626864;226;66822;-79
2022/03/16 04:20:55;;;;;;;;;;;;;;;25.18;63.05;97712.80;626856;226;67051;-78
2022/03/16 04:23:23;;;;;;;;;;;;;;;25.17;62.18;97703.13;626895;226;65368;-78
2022/03/16 04:25:50;;;;;;;;;;;;;;;25.16;62.29;97704.23;626959;226;67390;-78
2022/03/16 04:28:18;;;;;;;;;;;;;;;25.15;62.86;97689.95;626856;226;66974;-78
2022/03/16 04:30:45;;;;;;;;;;;;;;;25.15;63.23;97689.16;626904;226;65445;-78
2022/03/16 04:33:12;;;;;;;;;;;;;;;25.14;62.82;97690.22;626916;226;67877;-78
2022/03/16 04:35:40;;;;;;;;;;;;;;;25.14;62.64;97682.16;626893;226;66935;-78
2022/03/16 04:38:08;;;;;;;;;;;;;;;25.12;62.87;97679.73;626924;226;65133;-78
2022/03/16 04:40:36;;;;;;;;;;;;;;;25.11;62.84;97683.52;624768;226;64944;-78
2022/03/16 04:43:03;;;;;;;;;;;;;;;25.09;62.52;97672.23;624599;227;64679;-78
2022/03/16 04:45:31;;;;;;;;;;;;;;;25.10;62.92;97667.65;624639;227;63084;-78
2022/03/16 04:48:00;;;;;;;;;;;;;;;25.09;63.00;97671.44;624623;226;53781;-77
2022/03/16 04:50:28;;;;;;;;;;;;;;;25.07;62.36;97669.02;624659;227;65805;-78
2022/03/16 04:52:55;;;;;;;;;;;;;;;25.06;62.96;97658.55;624627;227;63167;-78
2022/03/16 04:55:23;;;;;;;;;;;;;;;25.05;62.94;97651.58;624590;227;64800;-73
2022/03/16 04:57:50;;;;;;;;;;;;;;;25.05;62.86;97659.65;624601;227;64864;-73
2022/03/16 05:00:17;;;;;;;;;;;;;;;25.04;63.08;97664.20;624574;225;63114;-73
2022/03/16 05:02:45;;;;;;;;;;;;;;;25.02;62.54;97671.77;624623;227;64811;-74
2022/03/16 05:05:13;;;;;;;;;;;;;;;25.03;62.91;97674.16;624672;227;67548;-73
2022/03/16 05:07:41;;;;;;;;;;;;;;;25.01;63.10;97667.45;624530;227;65361;-73
2022/03/16 05:10:09;;;;;;;;;;;;;;;25.00;63.26;97663.17;624597;227;64761;-74
2022/03/16 05:12:37;;;;;;;;;;;;;;;24.99;62.10;97653.48;624477;224;64453;-72
2022/03/16 05:15:08;;;;;;;;;;;;;;;25.01;62.32;97640.56;624591;226;52589;-73
2022/03/16 05:17:38;;;;;;;;;;;;;;;24.98;63.30;97641.93;624622;227;67148;-74
2022/03/16 05:20:07;;;;;;;;;;;;;;;24.98;62.77;97641.93;624573;227;66868;-73
2022/03/16 05:22:46;;;;;;;;;;;;;;;24.96;63.24;97646.81;624567;227;65487;-74
2022/03/16 05:25:16;;;;;;;;;;;;;;;24.96;62.47;97629.85;624351;225;64900;-73
2022/03/16 05:27:43;;;;;;;;;;;;;;;24.96;62.31;97613.72;624615;227;64416;-73
2022/03/16 05:30:11;;;;;;;;;;;;;;;24.95;63.20;97623.67;624649;227;64094;-73
2022/03/16 05:32:42;;;;;;;;;;;;;;;24.94;63.21;97622.08;624624;225;66556;-71
2022/03/16 05:35:11;;;;;;;;;;;;;;;24.94;62.93;97621.29;624621;227;64774;-72
2022/03/16 05:37:38;;;;;;;;;;;;;;;24.94;63.08;97616.70;624599;227;65196;-72
2022/03/16 05:40:07;;;;;;;;;;;;;;;24.94;63.46;97622.08;624579;226;67285;-72
2022/03/16 05:42:34;;;;;;;;;;;;;;;24.96;63.27;97619.09;624605;227;66908;-72
2022/03/16 05:45:02;;;;;;;;;;;;;;;24.95;63.92;97620.19;624651;227;65517;-72
2022/03/16 05:47:30;;;;;;;;;;;;;;;24.95;63.00;97618.30;624576;227;66709;-72
2022/03/16 05:49:57;;;;;;;;;;;;;;;24.95;63.46;97620.98;624513;225;66408;-72
2022/03/16 05:52:25;;;;;;;;;;;;;;;24.94;63.48;97616.70;624599;227;65432;-72
2022/03/16 05:54:54;;;;;;;;;;;;;;;24.94;62.68;97616.70;624645;227;67203;-72
2022/03/16 05:57:22;;;;;;;;;;;;;;;24.95;63.12;97610.23;624629;227;67045;-72
2022/03/16 05:59:50;;;;;;;;;;;;;;;24.95;63.28;97610.23;624598;227;63937;-72
2022/03/16 06:02:18;;;;;;;;;;;;;;;24.95;63.07;97602.16;624590;227;64852;-72
2022/03/16 06:04:45;;;;;;;;;;;;;;;24.96;63.19;97600.27;624334;227;64865;-72
2022/03/16 06:07:13;;;;;;;;;;;;;;;24.96;62.91;97602.97;624622;227;63056;-72
2022/03/16 06:09:40;;;;;;;;;;;;;;;24.96;62.48;97595.72;624671;227;64905;-72
2022/03/16 06:12:09;;;;;;;;;;;;;;;24.94;63.29;97592.51;624516;227;67041;-72
2022/03/16 06:14:37;;;;;;;;;;;;;;;24.95;62.41;97602.16;624567;227;65328;-72
2022/03/16 06:17:04;;;;;;;;;;;;;;;24.95;62.71;97602.16;624575;227;67182;-72
2022/03/16 06:19:32;;;;;;;;;;;;;;;24.96;61.89;97594.90;624587;227;67527;-72
2022/03/16 06:22:00;;;;;;;;;;;;;;;24.97;63.55;97589.25;624501;227;65234;-72
2022/03/16 06:24:27;;;;;;;;;;;;;;;24.97;62.89;97586.56;624650;227;64780;-72
2022/03/16 06:26:55;;;;;;;;;;;;;;;24.98;63.69;97590.05;624335;227;65140;-72
2022/03/16 06:29:23;;;;;;;;;;;;;;;24.98;63.20;97584.67;624120;227;65173;-72
2022/03/16 06:31:50;;;;;;;;;;;;;;;24.97;62.47;97583.88;624590;227;66987;-72
2022/03/16 06:34:18;;;;;;;;;;;;;;;25.00;63.13;97585.20;624502;227;66936;-72
2022/03/16 06:36:45;;;;;;;;;;;;;;;24.99;64.04;97581.71;624647;225;65076;-72
2022/03/16 06:39:13;;;;;;;;;;;;;;;25.00;62.94;97577.92;625282;226;67000;-73
2022/03/16 06:41:43;;;;;;;;;;;;;;;24.99;62.71;97581.71;626914;226;64833;-72
2022/03/16 06:44:11;;;;;;;;;;;;;;;25.00;63.67;97579.82;626883;226;63192;-73
2022/03/16 06:46:38;;;;;;;;;;;;;;;25.02;63.45;97583.83;626789;226;66768;-72
2022/03/16 06:49:06;;;;;;;;;;;;;;;25.03;62.85;97580.05;622853;226;64803;-72
2022/03/16 06:51:33;;;;;;;;;;;;;;;25.02;63.82;97581.14;626784;226;63154;-73
2022/03/16 06:54:01;;;;;;;;;;;;;;;25.02;63.06;97575.77;626851;226;65111;-73
2022/03/16 06:56:28;;;;;;;;;;;;;;;25.05;62.55;97573.59;626756;226;65678;-75
2022/03/16 06:58:56;;;;;;;;;;;;;;;25.05;62.91;97565.53;626546;226;63039;-74
2022/03/16 07:01:24;;;;;;;;;;;;;;;25.06;62.23;97573.30;626421;226;67139;-75
2022/03/16 07:03:51;;;;;;;;;;;;;;;25.07;62.99;97566.82;626614;226;66778;-71
2022/03/16 07:06:19;;;;;;;;;;;;;;;25.13;60.63;97570.30;626783;226;65238;-70
2022/03/16 07:08:47;;;;;;;;;;;;;;;25.16;62.28;97575.13;626844;226;67096;-72
2022/03/16 07:11:16;;;;;;;;;;;;;;;25.15;61.11;97568.92;626392;226;67051;-74
2022/03/16 07:14:30;;;;;;;;;;;;;;;25.17;62.03;97569.45;626652;226;64040;-70
2022/03/16 07:16:13;;;;;;;;;;;;;;;25.20;61.62;97560.01;619715;228;67231;-73
2022/03/16 07:18:42;;;;;;;;;;;;;;;25.23;61.98;97570.20;619429;228;47043;-75
2022/03/16 07:21:10;;;;;;;;;;;;;;;25.23;59.47;97564.81;619623;229;65407;-72
2022/03/16 07:23:37;;;;;;;;;;;;;;;25.24;59.92;97567.23;619364;229;67055;-77
2022/03/16 07:26:05;;;;;;;;;;;;;;;25.24;60.92;97559.16;619640;229;66906;-76
2022/03/16 07:28:32;;;;;;;;;;;;;;;25.26;61.08;97561.55;619700;229;66346;-75
2022/03/16 07:31:00;;;;;;;;;;;;;;;25.25;60.48;97549.99;619662;229;67133;-75
2022/03/16 07:33:27;;;;;;;;;;;;;;;25.27;60.49;97557.00;619593;229;64389;-75
2022/03/16 07:35:55;;;;;;;;;;;;;;;25.29;60.57;97561.01;619621;229;63037;-76
2022/03/16 07:38:23;;;;;;;;;;;;;;;25.30;60.10;97554.53;619631;226;67157;-76
2022/03/16 07:40:50;;;;;;;;;;;;;;;25.31;59.90;97558.81;617389;230;67224;-77
2022/03/16 07:43:17;;;;;;;;;;;;;;;25.33;60.02;97559.33;617454;227;65132;-68
2022/03/16 07:45:45;;;;;;;;;;;;;;;25.33;59.49;97545.88;617457;230;67235;-64
2022/03/16 07:48:13;;;;;;;;;;;;;;;25.36;59.08;97539.92;617249;230;66892;-72
2022/03/16 07:50:40;;;;;;;;;;;;;;;25.38;61.02;97542.34;617500;230;63026;-69
2022/03/16 07:53:08;;;;;;;;;;;;;;;25.40;59.56;97540.97;617433;230;66851;-69
2022/03/16 07:55:35;;;;;;;;;;;;;;;25.42;59.00;97530.70;617346;229;66730;-67
2022/03/16 07:58:03;;;;;;;;;;;;;;;25.43;59.09;97540.39;617464;230;64962;-69
2022/03/16 08:00:31;;;;;;;;;;;;;;;25.46;59.54;97525.56;617459;230;64623;-69
2022/03/16 08:03:03;;;;;;;;;;;;;;;25.47;59.25;97527.95;617438;227;67114;-69
2022/03/16 08:05:28;;;;;;;;;;;;;;;25.50;59.14;97531.95;617203;228;65178;-69
2022/03/16 08:07:55;;;;;;;;;;;;;;;25.50;58.90;97525.78;617445;230;67256;-68
2022/03/16 08:10:23;;;;;;;;;;;;;;;25.52;58.71;97526.30;617304;227;67020;-70
2022/03/16 08:12:50;;;;;;;;;;;;;;;25.51;58.80;97532.75;617581;227;65243;-70
2022/03/16 08:15:18;;;;;;;;;;;;;;;25.57;55.74;97532.42;619423;227;65005;-71
2022/03/16 08:17:45;;;;;;;;;;;;;;;25.64;54.35;97535.54;621486;227;64991;-70
2022/03/16 08:20:13;;;;;;;;;;;;;;;25.68;54.19;97530.40;624507;227;63153;-68
2022/03/16 08:22:40;;;;;;;;;;;;;;;25.72;54.60;97534.10;624554;227;65125;-60
2022/03/16 08:25:09;;;;;;;;;;;;;;;25.76;54.25;97539.73;624519;227;64888;-68
2022/03/16 08:27:37;;;;;;;;;;;;;;;25.79;54.61;97539.94;624502;227;65293;-69
2022/03/16 08:30:06;;;;;;;;;;;;;;;25.79;56.18;97536.45;624445;227;67407;-74
2022/03/16 08:32:33;;;;;;;;;;;;;;;25.74;58.75;97542.70;624552;227;67011;-71
2022/03/16 08:35:01;;;;;;;;;;;;;;;25.71;59.24;97531.72;624480;227;62898;-69
2022/03/16 08:37:28;;;;;;;;;;;;;;;25.70;58.25;97533.61;624502;227;64795;-68
2022/03/16 08:39:56;;;;;;;;;;;;;;;25.71;58.53;97531.72;625940;226;65019;-68
2022/03/16 08:42:23;;;;;;;;;;;;;;;25.70;56.91;97525.53;626801;226;65126;-69
2022/03/16 08:44:52;;;;;;;;;;;;;;;25.72;57.29;97531.41;626672;226;67016;-69
2022/03/16 08:47:21;;;;;;;;;;;;;;;25.71;56.97;97526.33;626816;226;64632;-71
2022/03/16 08:49:55;;;;;;;;;;;;;;;25.72;57.29;97528.72;626806;226;65173;-71
2022/03/16 08:52:19;;;;;;;;;;;;;;;25.71;57.46;97523.64;626484;225;67264;-74
2022/03/16 08:54:47;;;;;;;;;;;;;;;25.70;57.61;97514.77;626814;226;67143;-69
2022/03/16 08:57:15;;;;;;;;;;;;;;;25.67;57.41;97521.53;626881;226;65125;-70
2022/03/16 08:59:43;;;;;;;;;;;;;;;25.69;57.53;97518.53;626743;226;67263;-69
2022/03/16 09:02:10;;;;;;;;;;;;;;;25.69;56.79;97515.84;626819;226;67141;-69
2022/03/16 09:04:38;;;;;;;;;;;;;;;25.69;56.72;97518.53;626825;226;65489;-69
2022/03/16 09:07:06;;;;;;;;;;;;;;;25.70;56.64;97525.53;626770;226;64570;-69
2022/03/16 09:09:33;;;;;;;;;;;;;;;25.71;56.87;97520.95;626865;226;63985;-75
2022/03/16 09:12:01;;;;;;;;;;;;;;;25.71;56.64;97515.56;626800;226;65075;-70
2022/03/16 09:14:29;;;;;;;;;;;;;;;25.70;55.93;97517.46;626759;226;65445;-69
2022/03/16 09:16:56;;;;;;;;;;;;;;;25.71;56.21;97516.36;626874;226;67518;-73
2022/03/16 09:19:23;;;;;;;;;;;;;;;25.72;56.65;97517.95;626812;226;64946;-69
2022/03/16 09:21:51;;;;;;;;;;;;;;;25.72;56.56;97517.16;626820;226;65055;-69
2022/03/16 09:24:19;;;;;;;;;;;;;;;25.71;57.43;97516.36;626782;226;66863;-70
2022/03/16 09:26:47;;;;;;;;;;;;;;;25.72;56.40;97526.02;626794;226;65311;-69
2022/03/16 09:29:16;;;;;;;;;;;;;;;25.72;57.04;97527.92;626796;226;67007;-69
2022/03/16 09:31:44;;;;;;;;;;;;;;;25.72;57.08;97523.33;626855;226;67812;-67
2022/03/16 09:34:12;;;;;;;;;;;;;;;25.72;56.66;97520.64;626818;226;66062;-71
2022/03/16 09:36:42;;;;;;;;;;;;;;;25.70;58.07;97528.23;626842;226;66866;-67
2022/03/16 09:39:10;;;;;;;;;;;;;;;25.70;57.04;97514.77;626077;226;66862;-57
2022/03/16 09:41:37;;;;;;;;;;;;;;;25.71;55.85;97515.56;624375;227;63179;-68
2022/03/16 09:44:06;;;;;;;;;;;;;;;25.75;54.51;97508.50;624575;227;64644;-66
2022/03/16 09:46:34;;;;;;;;;;;;;;;25.75;54.93;97506.59;624474;227;64746;-65
2022/03/16 09:49:04;;;;;;;;;;;;;;;25.79;54.36;97517.61;624411;227;65506;-66
2022/03/16 09:51:35;;;;;;;;;;;;;;;25.81;55.38;97508.16;624538;227;67373;-67
2022/03/16 09:54:02;;;;;;;;;;;;;;;25.81;55.75;97493.86;624530;225;66888;-63
2022/03/16 09:56:34;;;;;;;;;;;;;;;25.83;55.79;97507.84;624583;227;46272;-70
2022/03/16 09:59:02;;;;;;;;;;;;;;;25.84;56.87;97521.06;624307;225;64708;-69
2022/03/16 10:01:32;;;;;;;;;;;;;;;25.82;57.78;97525.89;624579;227;64520;-69
2022/03/16 10:04:06;;;;;;;;;;;;;;;25.83;55.68;97529.38;624381;227;63220;-64
2022/03/16 10:06:43;;;;;;;;;;;;;;;25.84;55.67;97521.06;624234;227;63862;-65
2022/03/16 10:15:03;;;;;;;;;;;;;;;25.90;55.34;97519.89;617423;230;67218;-65
2022/03/16 10:17:46;;;;;;;;;;;;;;;25.90;56.34;97514.51;617424;230;65114;-65
2022/03/16 10:20:26;;;;;;;;;;;;;;;25.91;56.26;97501.84;617402;230;65385;-69
2022/03/16 10:22:54;;;;;;;;;;;;;;;25.92;56.79;97500.77;617536;230;64808;-64
2022/03/16 10:25:22;;;;;;;;;;;;;;;25.93;57.07;97501.56;617409;230;67141;-64
2022/03/16 10:27:49;;;;;;;;;;;;;;;25.93;56.04;97502.36;617497;230;65630;-66
2022/03/16 10:30:20;;;;;;;;;;;;;;;25.94;56.59;97498.56;617439;230;66708;-64
2022/03/16 10:32:53;;;;;;;;;;;;;;;25.93;58.31;97496.17;617324;228;66988;-65
2022/03/16 10:35:23;;;;;;;;;;;;;;;25.91;57.28;97482.98;617411;230;63209;-66
2022/03/16 10:37:52;;;;;;;;;;;;;;;25.90;57.02;97482.19;617491;227;68160;-72
2022/03/16 10:40:23;;;;;;;;;;;;;;;25.90;55.86;97484.89;617320;229;67096;-74
2022/03/16 10:48:22;;;;;;;;;;;;;;;25.94;55.75;97486.99;619306;227;67126;-66
2022/03/16 10:50:51;;;;;;;;;;;;;;;25.94;54.46;97481.61;620119;227;65179;-65
2022/03/16 10:53:21;;;;;;;;;;;;;;;25.95;54.09;97481.33;623496;227;67352;-66
2022/03/16 10:55:48;;;;;;;;;;;;;;;25.96;55.77;97484.81;624591;227;64881;-66
2022/03/16 10:58:16;;;;;;;;;;;;;;;25.95;53.81;97475.94;624515;227;63234;-65
2022/03/16 11:00:44;;;;;;;;;;;;;;;25.98;53.67;97469.17;624503;227;64891;-69
2022/03/16 11:03:15;;;;;;;;;;;;;;;25.97;54.16;97467.55;624547;227;67061;-71
2022/03/16 11:05:44;;;;;;;;;;;;;;;25.91;57.07;97467.62;624506;227;64047;-72
2022/03/16 11:08:12;;;;;;;;;;;;;;;25.95;53.71;97467.07;624484;227;67039;-73
2022/03/16 11:10:41;;;;;;;;;;;;;;;25.97;53.44;97462.17;624453;227;65783;-72
2022/03/16 11:15:56;;;;;;;;;;;;;;;25.97;55.23;97462.96;624386;227;64911;-70
2022/03/16 11:18:25;;;;;;;;;;;;;;;25.97;55.95;97451.39;624540;227;66612;-70
2022/03/16 11:20:54;;;;;;;;;;;;;;;25.97;55.46;97454.88;624529;227;65376;-72
2022/03/16 11:26:17;;;;;;;;;;;;;;;25.98;56.49;97456.50;624545;227;67214;-72
2022/03/16 11:28:46;;;;;;;;;;;;;;;26.00;55.31;97465.09;624509;227;65108;-70
2022/03/16 11:31:14;;;;;;;;;;;;;;;26.00;55.85;97470.48;624530;227;67119;-70
2022/03/16 11:33:49;;;;;;;;;;;;;;;26.00;56.13;97473.17;624529;227;66984;-72
2022/03/16 11:36:34;;;;;;;;;;;;;;;26.01;56.11;97473.97;624477;227;65662;-71
2022/03/16 11:39:03;;;;;;;;;;;;;;;26.01;56.82;97482.05;624404;227;65145;-69
2022/03/16 11:41:32;;;;;;;;;;;;;;;26.01;55.08;97477.46;624458;227;67007;-68
2022/03/16 11:44:03;;;;;;;;;;;;;;;26.03;55.23;97444.86;624505;227;65405;-71
2022/03/16 11:46:32;;;;;;;;;;;;;;;26.01;57.17;97479.36;624071;227;64638;-71
2022/03/16 11:49:03;;;;;;;;;;;;;;;25.98;57.83;97490.72;624545;227;66962;-70
2022/03/16 11:51:32;;;;;;;;;;;;;;;25.97;56.04;97486.41;624441;227;64047;-71
2022/03/16 11:54:05;;;;;;;;;;;;;;;25.96;57.91;97490.20;624529;227;68197;-73
2022/03/16 11:56:39;;;;;;;;;;;;;;;25.95;56.71;97488.61;624507;227;66974;-73
2022/03/16 11:59:10;;;;;;;;;;;;;;;25.95;56.98;97478.63;624554;227;62974;-70
2022/03/16 12:01:38;;;;;;;;;;;;;;;25.95;56.07;97472.45;624238;227;68770;-71
2022/03/16 12:04:12;;;;;;;;;;;;;;;25.96;55.34;97484.81;624510;227;65854;-71
2022/03/16 12:06:48;;;;;;;;;;;;;;;25.97;57.18;97465.66;624481;227;62996;-72
2022/03/16 12:09:20;;;;;;;;;;;;;;;25.96;56.25;97472.14;616802;225;67103;-73
2022/03/16 12:15:02;;;;;;;;;;;;;;;25.99;57.01;97473.45;624511;227;62943;-72
2022/03/16 12:17:30;;;;;;;;;;;;;;;26.00;53.97;97467.79;624551;227;67010;-72
2022/03/16 12:20:11;;;;;;;;;;;;;;;26.02;54.38;97467.48;624490;227;66751;-73
2022/03/16 12:22:48;;;;;;;;;;;;;;;26.06;52.74;97460.43;624524;227;63028;-70
2022/03/16 12:25:27;;;;;;;;;;;;;;;26.09;53.47;97451.76;624441;227;67126;-77
2022/03/16 12:30:39;;;;;;;;;;;;;;;26.11;52.05;97460.35;610310;225;64936;-73
2022/03/16 12:33:06;;;;;;;;;;;;;;;26.13;52.51;97445.47;624457;227;67406;-71
2022/03/16 12:35:34;;;;;;;;;;;;;;;26.14;52.66;97446.30;622392;227;66832;-73
2022/03/16 12:38:02;;;;;;;;;;;;;;;26.15;52.70;97447.88;618841;227;63163;-69
2022/03/16 12:40:29;;;;;;;;;;;;;;;26.17;52.55;97450.30;617286;227;64599;-68
2022/03/16 12:42:57;;;;;;;;;;;;;;;26.18;52.77;97449.98;617470;229;67420;-70
2022/03/16 12:45:28;;;;;;;;;;;;;;;26.20;52.35;97442.42;617538;230;65305;-72
2022/03/16 12:48:10;;;;;;;;;;;;;;;26.21;53.18;97440.52;617425;230;67099;-63
2022/03/16 12:50:34;;;;;;;;;;;;;;;26.20;50.88;97433.54;617370;228;67256;-63
2022/03/16 12:53:02;;;;;;;;;;;;;;;26.32;49.27;97440.05;617425;229;65234;-63
2022/03/16 12:55:29;;;;;;;;;;;;;;;26.33;53.96;97433.58;617399;230;67310;-64
2022/03/16 12:57:59;;;;;;;;;;;;;;;26.31;54.97;97432.27;617514;229;67122;-67
2022/03/16 13:00:39;;;;;;;;;;;;;;;26.33;51.52;97422.80;617543;228;47131;-67
2022/03/16 13:03:15;;;;;;;;;;;;;;;26.38;51.85;97434.57;617211;228;66783;-74
2022/03/16 13:05:44;;;;;;;;;;;;;;;26.38;51.84;97427.28;617493;230;67049;-70
2022/03/16 13:08:12;;;;;;;;;;;;;;;26.39;52.57;97430.80;617408;230;65573;-69
2022/03/16 13:11:24;;;;;;;;;;;;;;;26.38;54.40;97438.06;617395;230;67694;-70
2022/03/16 13:13:12;;;;;;;;;;;;;;;26.39;53.33;97431.59;616622;230;67162;-71
2022/03/16 13:15:41;;;;;;;;;;;;;;;26.39;51.43;97423.51;617394;230;63046;-72
2022/03/16 13:18:09;;;;;;;;;;;;;;;26.41;53.04;97431.28;617472;230;67270;-73